createdAt,value
2023-02-01T00:01:16.594Z,19.80
2023-02-01T00:03:44.879Z,23.73
2023-02-01T00:06:12.686Z,19.13
2023-02-01T00:08:40.854Z,18.53
2023-02-01T00:11:10.203Z,21.70
2023-02-01T00:13:39.576Z,22.17
2023-02-01T00:16:15.652Z,29.43
2023-02-01T00:18:44.622Z,24.67
2023-02-01T00:21:13.170Z,17.77
2023-02-01T00:23:41.308Z,20.83
2023-02-01T00:26:12.953Z,25.67
2023-02-01T00:28:41.070Z,16.90
2023-02-01T00:31:08.805Z,18.70
2023-02-01T00:33:37.400Z,25.63
2023-02-01T00:36:06.575Z,22.93
2023-02-01T00:38:35.734Z,18.37
2023-02-01T00:41:04.922Z,14.90
2023-02-01T00:43:33.684Z,17.50
2023-02-01T00:46:01.895Z,23.03
2023-02-01T00:48:29.903Z,24.80
2023-02-01T00:51:02.130Z,22.30
2023-02-01T00:53:30.268Z,22.83
2023-02-01T00:55:58.180Z,17.00
2023-02-01T00:58:27.059Z,16.73
2023-02-01T01:01:07.275Z,18.03
2023-02-01T01:03:36.965Z,18.40
2023-02-01T01:06:07.277Z,15.90
2023-02-01T01:08:35.791Z,25.80
2023-02-01T01:11:12.815Z,19.40
2023-02-01T01:13:41.233Z,17.80
2023-02-01T01:16:10.509Z,15.90
2023-02-01T01:18:38.830Z,21.20
2023-02-01T01:21:07.077Z,20.43
2023-02-01T01:23:36.307Z,23.57
2023-02-01T01:26:08.859Z,26.90
2023-02-01T01:28:36.823Z,17.67
2023-02-01T01:31:04.674Z,18.67
2023-02-01T01:33:32.794Z,17.63
2023-02-01T01:36:00.816Z,27.53
2023-02-01T01:38:28.694Z,25.20
2023-02-01T01:40:56.421Z,26.47
2023-02-01T01:43:24.472Z,23.63
2023-02-01T01:45:54.662Z,29.43
2023-02-01T01:48:23.133Z,21.30
2023-02-01T01:50:57.225Z,24.23
2023-02-01T01:53:31.550Z,20.70
2023-02-01T01:55:59.296Z,23.80
2023-02-01T01:58:30.212Z,31.23
2023-02-01T02:00:58.138Z,23.97
2023-02-01T02:03:35.244Z,30.83
2023-02-01T02:06:06.082Z,22.37
2023-02-01T02:08:34.096Z,22.27
2023-02-01T02:11:02.126Z,30.40
2023-02-01T02:13:41.229Z,21.23
2023-02-01T02:16:43.758Z,27.90
2023-02-01T02:19:50.345Z,23.63
2023-02-01T02:22:20.906Z,33.97
2023-02-01T02:25:17.369Z,24.37
2023-02-01T02:27:53.934Z,21.70
2023-02-01T02:30:22.318Z,22.70
2023-02-01T02:33:31.390Z,24.23
2023-02-01T02:36:20.149Z,19.17
2023-02-01T02:39:06.843Z,25.03
2023-02-01T02:42:08.349Z,17.47
2023-02-01T02:45:03.431Z,32.80
2023-02-01T02:47:53.773Z,18.77
2023-02-01T02:50:49.215Z,14.60
2023-02-01T02:53:41.242Z,22.43
2023-02-01T02:56:29.717Z,17.53
2023-02-01T02:59:17.826Z,20.83
2023-02-01T03:02:04.178Z,25.67
2023-02-01T03:04:32.223Z,27.87
2023-02-01T03:07:14.062Z,24.27
2023-02-01T03:09:46.622Z,17.90
2023-02-01T03:12:34.237Z,20.23
2023-02-01T03:15:09.676Z,20.33
2023-02-01T03:17:44.152Z,20.63
2023-02-01T03:20:14.795Z,21.83
2023-02-01T03:22:43.164Z,24.43
2023-02-01T03:25:14.413Z,25.23
2023-02-01T03:28:01.342Z,21.83
2023-02-01T03:30:36.569Z,20.03
2023-02-01T03:33:14.788Z,23.23
2023-02-01T03:35:49.513Z,15.10
2023-02-01T03:38:20.562Z,21.53
2023-02-01T03:40:50.928Z,23.77
2023-02-01T03:43:20.836Z,21.03
2023-02-01T03:45:52.268Z,21.63
2023-02-01T03:48:21.730Z,12.60
2023-02-01T03:50:52.539Z,21.57
2023-02-01T03:53:22.789Z,19.87
2023-02-01T03:55:52.005Z,18.53
2023-02-01T03:58:20.967Z,27.27
2023-02-01T04:00:56.631Z,17.90
2023-02-01T04:03:26.437Z,21.50
2023-02-01T04:05:55.353Z,23.30
2023-02-01T04:08:27.401Z,19.17
2023-02-01T04:10:55.461Z,24.00
2023-02-01T04:13:23.092Z,18.70
2023-02-01T04:15:51.010Z,19.20
2023-02-01T04:18:18.935Z,22.40
2023-02-01T04:20:47.069Z,18.33
2023-02-01T04:23:16.688Z,22.23
2023-02-01T04:25:44.773Z,22.00
2023-02-01T04:28:12.613Z,24.80
2023-02-01T04:30:40.744Z,19.90
2023-02-01T04:33:08.746Z,23.90
2023-02-01T04:35:36.675Z,20.43
2023-02-01T04:38:04.361Z,23.60
2023-02-01T04:40:32.402Z,17.53
2023-02-01T04:43:00.476Z,17.13
2023-02-01T04:45:28.719Z,20.07
2023-02-01T04:47:56.480Z,16.33
2023-02-01T04:50:25.259Z,23.83
2023-02-01T04:52:53.093Z,17.33
2023-02-01T04:55:21.063Z,32.13
2023-02-01T04:57:48.828Z,20.13
2023-02-01T05:00:17.103Z,24.30
2023-02-01T05:02:44.888Z,20.93
2023-02-01T05:05:13.864Z,27.03
2023-02-01T05:07:41.557Z,16.40
2023-02-01T05:10:10.047Z,17.00
2023-02-01T05:12:56.404Z,21.80
2023-02-01T05:15:24.377Z,17.93
2023-02-01T05:17:52.065Z,24.23
2023-02-01T05:20:20.371Z,28.03
2023-02-01T05:22:48.224Z,23.90
2023-02-01T05:25:16.273Z,17.80
2023-02-01T05:27:44.493Z,18.13
2023-02-01T05:30:12.834Z,13.47
2023-02-01T05:32:40.478Z,17.37
2023-02-01T05:35:08.828Z,19.00
2023-02-01T05:37:36.695Z,23.20
2023-02-01T05:40:04.966Z,21.93
2023-02-01T05:42:32.882Z,20.63
2023-02-01T05:45:00.966Z,22.17
2023-02-01T05:47:28.823Z,24.10
2023-02-01T05:49:56.880Z,20.50
2023-02-01T05:52:24.749Z,21.13
2023-02-01T05:54:53.788Z,24.13
2023-02-01T05:57:21.558Z,25.83
2023-02-01T05:59:49.806Z,20.40
2023-02-01T06:02:17.846Z,21.10
2023-02-01T06:04:45.805Z,24.90
2023-02-01T06:07:13.554Z,20.00
2023-02-01T06:09:41.705Z,20.37
2023-02-01T06:12:09.738Z,25.60
2023-02-01T06:14:38.282Z,21.77
2023-02-01T06:17:07.476Z,21.93
2023-02-01T06:19:35.609Z,23.70
2023-02-01T06:22:03.366Z,17.10
2023-02-01T06:24:31.354Z,16.57
2023-02-01T06:26:59.147Z,21.53
2023-02-01T06:29:27.676Z,22.77
2023-02-01T06:31:55.520Z,17.17
2023-02-01T06:34:24.298Z,23.37
2023-02-01T06:36:52.189Z,19.27
2023-02-01T06:39:20.165Z,19.90
2023-02-01T06:41:48.622Z,14.87
2023-02-01T06:44:17.224Z,22.47
2023-02-01T06:46:45.367Z,21.63
2023-02-01T06:49:13.553Z,24.23
2023-02-01T06:51:41.326Z,14.27
2023-02-01T06:54:09.433Z,19.00
2023-02-01T06:56:37.323Z,16.43
2023-02-01T06:59:06.069Z,17.80
2023-02-01T07:01:34.133Z,21.10
2023-02-01T07:04:02.486Z,20.07
2023-02-01T07:06:30.349Z,14.47
2023-02-01T07:08:58.860Z,13.83
2023-02-01T07:11:28.499Z,21.17
2023-02-01T07:13:56.651Z,19.77
2023-02-01T07:16:24.810Z,27.03
2023-02-01T07:18:54.907Z,14.00
2023-02-01T07:21:23.507Z,19.80
2023-02-01T07:23:51.614Z,15.67
2023-02-01T07:26:19.881Z,14.17
2023-02-01T07:28:48.370Z,18.63
2023-02-01T07:31:20.008Z,38.57
2023-02-01T07:33:48.317Z,23.97
2023-02-01T07:36:17.563Z,26.13
2023-02-01T07:38:45.684Z,20.37
2023-02-01T07:41:13.514Z,23.13
2023-02-01T07:43:41.694Z,21.50
2023-02-01T07:46:09.670Z,15.63
2023-02-01T07:48:37.961Z,19.43
2023-02-01T07:51:07.560Z,13.57
2023-02-01T07:53:35.950Z,14.90
2023-02-01T07:56:04.869Z,20.50
2023-02-01T07:58:32.978Z,17.43
2023-02-01T08:01:19.470Z,19.73
2023-02-01T08:03:48.892Z,22.37
2023-02-01T08:06:16.960Z,15.40
2023-02-01T08:08:46.340Z,24.20
2023-02-01T08:11:14.719Z,21.33
2023-02-01T08:13:42.735Z,24.27
2023-02-01T08:16:11.319Z,13.10
2023-02-01T08:18:40.196Z,26.33
2023-02-01T08:21:15.524Z,21.70
2023-02-01T08:23:43.969Z,15.67
2023-02-01T08:26:41.203Z,17.50
2023-02-01T08:29:09.749Z,18.90
2023-02-01T08:31:37.410Z,17.03
2023-02-01T08:34:05.491Z,13.83
2023-02-01T08:36:33.498Z,17.57
2023-02-01T08:39:01.734Z,23.70
2023-02-01T08:41:30.899Z,20.03
2023-02-01T08:43:59.443Z,24.37
2023-02-01T08:46:27.225Z,12.80
2023-02-01T08:48:55.179Z,19.87
2023-02-01T08:51:23.950Z,24.10
2023-02-01T08:53:52.296Z,18.77
2023-02-01T08:56:20.501Z,23.43
2023-02-01T08:58:48.538Z,17.87
2023-02-01T09:01:18.014Z,10.80
2023-02-01T09:03:46.938Z,10.63
2023-02-01T09:06:16.152Z,10.50
2023-02-01T09:08:44.457Z,11.93
2023-02-01T09:11:14.400Z,16.83
2023-02-01T09:13:42.832Z,9.30
2023-02-01T09:16:10.728Z,8.47
2023-02-01T09:18:46.108Z,16.53
2023-02-01T09:21:24.151Z,17.03
2023-02-01T09:23:52.897Z,14.43
2023-02-01T09:26:26.518Z,13.53
2023-02-01T09:28:59.538Z,9.60
2023-02-01T09:31:27.644Z,16.70
2023-02-01T09:33:55.845Z,15.90
2023-02-01T09:36:24.664Z,12.23
2023-02-01T09:38:53.398Z,15.07
2023-02-01T09:41:44.698Z,19.30
2023-02-01T09:44:23.119Z,28.20
2023-02-01T09:46:57.675Z,20.67
2023-02-01T09:49:33.638Z,12.90
2023-02-01T09:52:04.024Z,16.77
2023-02-01T09:54:38.342Z,15.87
2023-02-01T09:57:21.486Z,14.67
2023-02-01T09:59:54.883Z,12.70
2023-02-01T10:02:26.176Z,17.67
2023-02-01T10:04:59.122Z,16.00
2023-02-01T10:07:56.428Z,16.33
2023-02-01T10:10:27.590Z,14.83
2023-02-01T10:13:24.917Z,13.63
2023-02-01T10:16:08.485Z,17.90
2023-02-01T10:18:44.345Z,11.73
2023-02-01T10:21:18.316Z,14.20
2023-02-01T10:23:55.177Z,21.20
2023-02-01T10:26:31.675Z,10.97
2023-02-01T10:29:05.584Z,12.70
2023-02-01T10:31:39.036Z,16.70
2023-02-01T10:34:34.655Z,20.70
2023-02-01T10:37:28.209Z,20.27
2023-02-01T10:39:58.654Z,13.03
2023-02-01T10:42:29.208Z,15.30
2023-02-01T10:45:00.680Z,16.70
2023-02-01T10:47:28.174Z,14.53
2023-02-01T10:50:15.872Z,15.13
2023-02-01T10:52:49.352Z,16.97
2023-02-01T10:55:30.178Z,9.43
2023-02-01T10:58:03.639Z,16.20
2023-02-01T11:00:43.090Z,14.13
2023-02-01T11:03:40.362Z,18.00
2023-02-01T11:06:41.115Z,17.17
2023-02-01T11:09:24.893Z,21.57
2023-02-01T11:11:52.458Z,16.90
2023-02-01T11:14:33.226Z,16.63
2023-02-01T11:17:03.540Z,23.57
2023-02-01T11:19:31.528Z,20.27
2023-02-01T11:22:01.195Z,21.70
2023-02-01T11:24:34.079Z,28.33
2023-02-01T11:27:06.809Z,27.33
2023-02-01T11:29:41.256Z,20.07
2023-02-01T11:32:10.133Z,20.93
2023-02-01T11:34:49.012Z,19.87
2023-02-01T11:37:27.998Z,25.40
2023-02-01T11:40:01.672Z,26.20
2023-02-01T11:42:29.903Z,32.60
2023-02-01T11:45:21.303Z,21.30
2023-02-01T11:47:53.979Z,18.40
2023-02-01T11:50:33.464Z,26.53
2023-02-01T11:53:12.660Z,17.33
2023-02-01T11:55:53.687Z,24.27
2023-02-01T11:58:48.922Z,19.13
2023-02-01T12:01:28.169Z,29.60
2023-02-01T12:04:01.472Z,13.23
2023-02-01T12:06:52.381Z,16.07
2023-02-01T12:09:51.957Z,16.67
2023-02-01T12:12:31.834Z,15.83
2023-02-01T12:15:35.804Z,8.57
2023-02-01T12:18:27.275Z,8.17
2023-02-01T12:21:03.728Z,9.40
2023-02-01T12:23:43.205Z,9.20
2023-02-01T12:26:32.463Z,4.97
2023-02-01T12:29:28.131Z,9.07
2023-02-01T12:32:07.475Z,10.37
2023-02-01T12:34:55.341Z,6.37
2023-02-01T12:37:55.626Z,21.27
2023-02-01T12:40:50.733Z,13.40
2023-02-01T12:43:44.037Z,8.37
2023-02-01T12:46:29.116Z,9.60
2023-02-01T12:49:01.444Z,10.20
2023-02-01T12:51:35.287Z,8.70
2023-02-01T12:54:15.138Z,8.23
2023-02-01T12:56:52.664Z,10.53
2023-02-01T12:59:53.702Z,10.63
2023-02-01T13:02:26.794Z,13.73
2023-02-01T13:05:07.873Z,8.73
2023-02-01T13:07:44.657Z,4.37
2023-02-01T13:10:33.768Z,7.33
2023-02-01T13:13:23.521Z,9.77
2023-02-01T13:15:57.047Z,7.63
2023-02-01T13:18:29.814Z,7.77
2023-02-01T13:21:11.659Z,7.97
2023-02-01T13:23:41.752Z,8.90
2023-02-01T13:26:09.217Z,6.80
2023-02-01T13:28:54.180Z,9.90
2023-02-01T13:31:55.641Z,11.23
2023-02-01T13:34:48.189Z,5.13
2023-02-01T13:37:15.345Z,8.13
2023-02-01T13:40:22.847Z,6.97
2023-02-01T13:42:54.471Z,7.27
2023-02-01T13:45:26.400Z,10.63
2023-02-01T13:47:58.356Z,24.43
2023-02-01T13:50:35.108Z,22.63
2023-02-01T13:53:16.177Z,14.77
2023-02-01T13:55:53.556Z,4.87
2023-02-01T13:58:24.028Z,9.60
2023-02-01T14:00:52.405Z,8.67
2023-02-01T14:03:43.607Z,8.50
2023-02-01T14:06:44.844Z,6.87
2023-02-01T14:09:15.277Z,11.57
2023-02-01T14:11:49.217Z,4.23
2023-02-01T14:14:16.475Z,9.60
2023-02-01T14:16:45.616Z,9.10
2023-02-01T14:19:30.998Z,9.03
2023-02-01T14:22:25.251Z,19.90
2023-02-01T14:24:57.762Z,11.40
2023-02-01T14:27:31.035Z,16.27
2023-02-01T14:30:01.601Z,14.87
2023-02-01T14:32:37.670Z,7.20
2023-02-01T14:35:28.149Z,9.70
2023-02-01T14:38:03.769Z,13.80
2023-02-01T14:40:32.117Z,12.77
2023-02-01T14:42:59.914Z,11.60
2023-02-01T14:45:28.546Z,7.03
2023-02-01T14:48:08.726Z,10.03
2023-02-01T14:50:43.505Z,12.87
2023-02-01T14:53:14.316Z,11.83
2023-02-01T14:55:43.410Z,9.37
2023-02-01T14:58:45.390Z,7.67
2023-02-01T15:01:35.214Z,9.70
2023-02-01T15:04:14.604Z,6.70
2023-02-01T15:06:58.598Z,11.87
2023-02-01T15:09:35.910Z,11.60
2023-02-01T15:12:12.220Z,10.03
2023-02-01T15:14:43.594Z,12.13
2023-02-01T15:17:24.931Z,14.77
2023-02-01T15:19:57.474Z,9.90
2023-02-01T15:22:25.999Z,10.57
2023-02-01T15:25:01.558Z,11.90
2023-02-01T15:27:30.606Z,8.43
2023-02-01T15:30:22.683Z,16.00
2023-02-01T15:32:51.228Z,6.77
2023-02-01T15:35:44.677Z,9.67
2023-02-01T15:38:22.826Z,9.50
2023-02-01T15:41:20.592Z,10.80
2023-02-01T15:44:04.792Z,12.27
2023-02-01T15:46:43.558Z,11.30
2023-02-01T15:49:21.762Z,8.20
2023-02-01T15:51:49.815Z,7.43
2023-02-01T15:54:27.356Z,10.37
2023-02-01T15:56:56.858Z,11.47
2023-02-01T15:59:34.442Z,16.23
2023-02-01T16:02:02.036Z,12.43
2023-02-01T16:04:34.001Z,16.60
2023-02-01T16:07:05.484Z,9.17
2023-02-01T16:09:40.097Z,13.13
2023-02-01T16:12:28.850Z,11.67
2023-02-01T16:14:56.072Z,11.47
2023-02-01T16:17:23.634Z,10.07
2023-02-01T16:19:51.691Z,14.90
2023-02-01T16:22:19.536Z,17.20
2023-02-01T16:24:46.968Z,12.90
2023-02-01T16:27:14.774Z,15.67
2023-02-01T16:29:42.897Z,10.40
2023-02-01T16:32:28.812Z,14.47
2023-02-01T16:34:58.166Z,13.43
2023-02-01T16:37:28.543Z,10.93
2023-02-01T16:39:55.819Z,10.73
2023-02-01T16:42:23.324Z,18.13
2023-02-01T16:44:50.504Z,12.73
2023-02-01T16:47:24.080Z,13.17
2023-02-01T16:49:52.057Z,12.77
2023-02-01T16:52:24.953Z,10.40
2023-02-01T16:54:52.522Z,15.47
2023-02-01T16:57:25.054Z,13.20
2023-02-01T16:59:52.617Z,32.43
2023-02-01T17:02:22.377Z,42.87
2023-02-01T17:04:50.158Z,23.63
2023-02-01T17:07:20.050Z,13.83
2023-02-01T17:09:48.926Z,13.57
2023-02-01T17:12:27.873Z,16.57
2023-02-01T17:14:55.911Z,13.10
2023-02-01T17:17:39.001Z,11.97
2023-02-01T17:20:08.042Z,18.70
2023-02-01T17:22:36.353Z,15.03
2023-02-01T17:25:09.132Z,14.27
2023-02-01T17:27:39.020Z,16.20
2023-02-01T17:30:07.128Z,17.60
2023-02-01T17:32:35.179Z,15.10
2023-02-01T17:35:03.815Z,19.57
2023-02-01T17:37:38.014Z,15.10
2023-02-01T17:40:07.129Z,16.10
2023-02-01T17:42:38.973Z,15.07
2023-02-01T17:45:37.471Z,13.57
2023-02-01T17:48:07.665Z,15.47
2023-02-01T17:50:38.682Z,15.70
2023-02-01T17:53:10.138Z,11.80
2023-02-01T17:55:42.234Z,19.00
2023-02-01T17:58:15.097Z,29.77
2023-02-01T18:00:44.003Z,22.70
2023-02-01T18:03:24.517Z,15.13
2023-02-01T18:05:53.811Z,14.67
2023-02-01T18:08:23.490Z,16.70
2023-02-01T18:10:54.528Z,11.20
2023-02-01T18:13:22.846Z,12.73
2023-02-01T18:15:50.443Z,9.00
2023-02-01T18:18:18.063Z,11.50
2023-02-01T18:20:47.632Z,11.57
2023-02-01T18:23:21.167Z,13.00
2023-02-01T18:25:49.628Z,10.67
2023-02-01T18:28:18.307Z,11.20
2023-02-01T18:30:49.203Z,9.57
2023-02-01T18:33:19.284Z,11.13
2023-02-01T18:35:47.596Z,12.77
2023-02-01T18:38:16.169Z,11.13
2023-02-01T18:40:58.891Z,8.50
2023-02-01T18:43:27.955Z,8.37
2023-02-01T18:45:55.907Z,8.10
2023-02-01T18:48:24.423Z,13.67
2023-02-01T18:50:57.563Z,7.00
2023-02-01T18:53:27.687Z,7.50
2023-02-01T18:55:56.423Z,7.23
2023-02-01T18:58:27.850Z,8.53
2023-02-01T19:00:57.735Z,9.80
2023-02-01T19:03:27.067Z,11.13
2023-02-01T19:05:57.927Z,13.30
2023-02-01T19:08:26.154Z,9.37
2023-02-01T19:10:54.682Z,9.53
2023-02-01T19:13:24.686Z,9.23
2023-02-01T19:15:52.007Z,12.33
2023-02-01T19:18:20.555Z,11.53
2023-02-01T19:20:51.437Z,10.03
2023-02-01T19:23:19.486Z,11.87
2023-02-01T19:25:48.777Z,9.43
2023-02-01T19:28:16.822Z,13.47
2023-02-01T19:30:45.053Z,15.23
2023-02-01T19:33:13.001Z,15.63
2023-02-01T19:35:40.766Z,15.33
2023-02-01T19:38:09.701Z,15.63
2023-02-01T19:40:37.271Z,14.37
2023-02-01T19:43:04.976Z,15.30
2023-02-01T19:45:32.479Z,15.80
2023-02-01T19:48:03.319Z,14.73
2023-02-01T19:50:31.111Z,20.03
2023-02-01T19:52:59.077Z,14.90
2023-02-01T19:55:27.240Z,13.90
2023-02-01T19:57:55.488Z,12.90
2023-02-01T20:00:22.591Z,21.73
2023-02-01T20:02:50.835Z,24.20
2023-02-01T20:05:19.263Z,17.43
2023-02-01T20:07:46.938Z,16.37
2023-02-01T20:10:14.973Z,15.30
2023-02-01T20:12:44.661Z,13.57
2023-02-01T20:15:12.198Z,15.37
2023-02-01T20:17:40.004Z,12.77
2023-02-01T20:20:07.978Z,16.07
2023-02-01T20:22:35.619Z,20.67
2023-02-01T20:25:04.531Z,12.00
2023-02-01T20:27:34.136Z,13.57
2023-02-01T20:30:01.622Z,15.43
2023-02-01T20:32:29.359Z,16.20
2023-02-01T20:34:56.994Z,16.97
2023-02-01T20:37:24.951Z,17.10
2023-02-01T20:39:52.787Z,13.63
2023-02-01T20:42:20.817Z,15.67
2023-02-01T20:44:48.568Z,12.40
2023-02-01T20:47:16.725Z,11.30
2023-02-01T20:49:44.322Z,13.60
2023-02-01T20:52:13.289Z,10.63
2023-02-01T20:54:41.152Z,9.70
2023-02-01T20:57:09.555Z,10.57
2023-02-01T20:59:37.425Z,8.87
2023-02-01T21:02:05.528Z,7.50
2023-02-01T21:04:34.436Z,13.23
2023-02-01T21:07:03.467Z,11.13
2023-02-01T21:09:31.391Z,12.33
2023-02-01T21:11:59.515Z,14.73
2023-02-01T21:14:27.399Z,11.63
2023-02-01T21:16:55.010Z,11.77
2023-02-01T21:19:26.372Z,10.37
2023-02-01T21:21:54.682Z,9.23
2023-02-01T21:24:22.185Z,12.80
2023-02-01T21:26:49.928Z,13.97
2023-02-01T21:29:18.013Z,8.80
2023-02-01T21:31:45.835Z,9.37
2023-02-01T21:34:13.559Z,8.77
2023-02-01T21:36:41.726Z,10.43
2023-02-01T21:39:10.952Z,12.50
2023-02-01T21:41:57.102Z,10.20
2023-02-01T21:44:25.017Z,22.07
2023-02-01T21:46:53.007Z,12.17
2023-02-01T21:49:20.522Z,13.37
2023-02-01T21:51:48.352Z,11.63
2023-02-01T21:54:17.477Z,11.87
2023-02-01T21:56:45.768Z,11.13
2023-02-01T21:59:13.525Z,16.73
2023-02-01T22:01:41.600Z,15.27
2023-02-01T22:04:10.440Z,12.90
2023-02-01T22:06:46.992Z,17.20
2023-02-01T22:09:21.712Z,16.03
2023-02-01T22:11:51.438Z,13.20
2023-02-01T22:14:19.544Z,14.10
2023-02-01T22:16:47.783Z,12.43
2023-02-01T22:19:15.466Z,15.97
2023-02-01T22:21:46.197Z,12.57
2023-02-01T22:24:16.395Z,16.03
2023-02-01T22:26:48.100Z,18.17
2023-02-01T22:29:17.362Z,13.87
2023-02-01T22:31:45.826Z,11.43
2023-02-01T22:34:13.565Z,13.10
2023-02-01T22:36:41.544Z,12.77
2023-02-01T22:39:09.348Z,8.60
2023-02-01T22:41:37.939Z,8.33
2023-02-01T22:44:06.423Z,20.90
2023-02-01T22:46:34.637Z,14.00
2023-02-01T22:49:03.584Z,12.67
2023-02-01T22:51:32.859Z,14.33
2023-02-01T22:54:00.921Z,19.23
2023-02-01T22:56:36.818Z,12.03
2023-02-01T22:59:07.825Z,15.30
2023-02-01T23:01:35.990Z,22.13
2023-02-01T23:04:05.907Z,19.00
2023-02-01T23:06:34.899Z,25.17
2023-02-01T23:09:13.832Z,19.63
2023-02-01T23:11:42.389Z,25.77
2023-02-01T23:14:10.620Z,22.60
2023-02-01T23:16:39.455Z,31.63
2023-02-01T23:19:07.058Z,27.40
2023-02-01T23:21:34.985Z,25.40
2023-02-01T23:24:04.831Z,26.03
2023-02-01T23:26:32.569Z,17.13
2023-02-01T23:29:01.316Z,20.00
2023-02-01T23:31:31.216Z,23.20
2023-02-01T23:34:00.621Z,22.43
2023-02-01T23:36:29.828Z,28.13
2023-02-01T23:38:57.568Z,24.47
2023-02-01T23:41:27.566Z,26.27
2023-02-01T23:43:57.973Z,33.47
2023-02-01T23:46:41.744Z,19.90
2023-02-01T23:49:10.088Z,33.87
2023-02-01T23:51:37.723Z,30.00
2023-02-01T23:54:06.569Z,19.20
2023-02-01T23:56:40.296Z,21.00
2023-02-01T23:59:12.474Z,21.97
